Time;durP1;ratioP1;P1;durP2;ratioP2;P2;SDS_P1;SDS_P2;PMS_P1;PMS_P2;Temp;Humidity;BMP_temperature;BMP_pressure;BME280_temperature;BME280_humidity;BME280_pressure;Samples;Min_cycle;Max_cycle;Signal;HPM_P1;HPM_P2
2022/02/09 00:01:10;;;;;;;6.25;3.30;;;9.70;99.90;;;;;;5005730;28;20457;-87
2022/02/09 00:03:39;;;;;;;8.00;3.75;;;9.70;99.90;;;;;;5004430;28;20289;-86
2022/02/09 00:06:10;;;;;;;9.37;4.00;;;9.70;99.90;;;;;;5006240;28;20211;-87
2022/02/09 00:08:37;;;;;;;12.43;3.77;;;9.70;99.90;;;;;;5006009;28;20486;-87
2022/02/09 00:11:14;;;;;;;10.50;3.80;;;9.70;99.90;;;;;;5009249;28;20473;-87
2022/02/09 00:16:57;;;;;;;;;;;;;;;;;;;;;
2022/02/09 00:19:22;;;;;;;8.00;3.00;;;9.50;99.90;;;;;;4321056;23;20496;-87
2022/02/09 00:22:26;;;;;;;8.55;3.03;;;9.50;99.90;;;;;;5006992;28;20541;-88
2022/02/09 00:31:24;;;;;;;6.37;2.80;;;9.50;99.90;;;;;;4951103;29;20486;-86
2022/02/09 00:34:23;;;;;;;8.93;3.55;;;9.40;99.90;;;;;;5000378;28;20460;-85
2022/02/09 00:37:24;;;;;;;7.72;3.83;;;9.40;99.90;;;;;;5005778;28;20222;-86
2022/02/09 00:42:51;;;;;;;9.93;3.75;;;9.40;99.90;;;;;;5003710;28;20301;-86
2022/02/09 01:40:54;;;;;;;9.23;3.70;;;9.40;99.90;;;;;;5004994;28;20416;-85
2022/02/09 01:57:10;;;;;;;7.60;3.30;;;9.60;99.90;;;;;;4999353;28;20953;-86
2022/02/09 01:59:37;;;;;;;8.70;3.63;;;9.50;99.90;;;;;;5000938;28;20446;-86
2022/02/09 02:02:05;;;;;;;6.87;2.90;;;9.50;99.90;;;;;;4999209;28;20449;-86
2022/02/09 02:04:32;;;;;;;6.83;3.53;;;9.60;99.90;;;;;;4998700;28;20503;-86
2022/02/09 02:07:03;;;;;;;6.23;3.23;;;9.60;99.90;;;;;;4999839;28;20458;-86
2022/02/09 02:09:34;;;;;;;6.20;2.90;;;9.50;99.90;;;;;;4999732;28;20446;-86
2022/02/09 02:12:08;;;;;;;7.20;3.10;;;9.40;99.90;;;;;;4999374;28;20441;-85
2022/02/09 02:14:40;;;;;;;8.33;3.60;;;9.50;99.90;;;;;;4999288;28;20441;-85
2022/02/09 02:17:13;;;;;;;11.07;3.33;;;9.50;99.90;;;;;;5000290;28;20495;-86
2022/02/09 02:19:45;;;;;;;12.40;3.87;;;9.50;99.90;;;;;;4998955;28;20503;-85
2022/02/09 02:22:30;;;;;;;9.30;3.43;;;9.50;99.90;;;;;;4999697;28;20912;-85
2022/02/09 02:28:09;;;;;;;7.20;2.80;;;9.50;99.90;;;;;;5003257;28;20466;-86
2022/02/09 02:31:06;;;;;;;8.38;3.38;;;9.50;99.90;;;;;;5011580;28;20441;-86
2022/02/09 02:37:02;;;;;;;9.53;3.47;;;9.50;99.90;;;;;;4990329;28;20262;-85
2022/02/09 02:45:53;;;;;;;6.67;3.03;;;9.40;99.90;;;;;;5005735;28;20950;-85
2022/02/09 03:10:15;;;;;;;10.80;3.90;;;9.50;99.90;;;;;;4999518;28;20418;-85
2022/02/09 03:12:47;;;;;;;5.40;2.97;;;9.50;99.90;;;;;;4999689;28;20206;-85
2022/02/09 03:15:31;;;;;;;5.97;2.67;;;9.50;99.90;;;;;;5001993;28;20480;-85
2022/02/09 03:18:16;;;;;;;7.47;3.23;;;9.50;99.90;;;;;;5004792;28;20233;-85
2022/02/09 03:20:48;;;;;;;5.80;2.87;;;9.50;99.90;;;;;;5014556;28;20438;-86
2022/02/09 03:23:28;;;;;;;9.60;3.13;;;9.50;99.90;;;;;;5014850;28;20454;-86
2022/02/09 03:26:20;;;;;;;7.23;2.93;;;9.50;99.90;;;;;;5016119;28;20436;-85
2022/02/09 03:42:21;;;;;;;5.28;2.60;;;9.40;99.90;;;;;;5016023;28;20477;-84
2022/02/09 03:42:47;;;;;;;6.23;2.60;;;9.40;99.90;;;;;;5002859;28;20508;-86
2022/02/09 03:48:18;;;;;;;6.97;3.25;;;9.30;99.90;;;;;;5003985;28;20511;-86
2022/02/09 03:51:11;;;;;;;6.87;3.07;;;9.40;99.90;;;;;;5003705;28;20589;-85
2022/02/09 03:53:57;;;;;;;9.75;2.85;;;9.50;99.90;;;;;;5002657;28;20817;-85
2022/02/09 03:56:28;;;;;;;5.07;2.50;;;9.40;99.90;;;;;;5008563;28;20233;-86
2022/02/09 03:58:55;;;;;;;4.30;2.57;;;9.50;99.90;;;;;;5014901;28;20580;-85
2022/02/09 04:01:28;;;;;;;7.23;2.90;;;9.40;99.90;;;;;;5004893;28;20481;-86
2022/02/09 04:03:54;;;;;;;6.43;3.15;;;9.40;99.90;;;;;;5001655;28;20521;-86
2022/02/09 04:06:21;;;;;;;6.20;2.63;;;9.50;99.90;;;;;;5001071;28;20382;-85
2022/02/09 04:08:53;;;;;;;6.07;3.23;;;9.60;99.90;;;;;;5000933;28;20944;-86
2022/02/09 04:11:26;;;;;;;7.20;2.37;;;9.50;99.90;;;;;;5002546;28;20541;-87
2022/02/09 04:14:01;;;;;;;5.60;2.83;;;9.50;99.90;;;;;;5013074;28;20452;-86
2022/02/09 04:16:47;;;;;;;4.90;2.67;;;9.40;99.90;;;;;;5005990;28;20475;-86
2022/02/09 04:19:26;;;;;;;10.15;3.47;;;9.40;99.90;;;;;;5073765;23;20256;-90
2022/02/09 04:38:39;;;;;;;7.30;3.37;;;9.30;99.90;;;;;;5010779;28;20233;-93
2022/02/09 04:41:26;;;;;;;8.02;2.80;;;9.50;99.90;;;;;;5009305;28;20465;-92
2022/02/09 04:52:33;;;;;;;6.30;3.10;;;9.70;99.90;;;;;;5019687;28;20430;-91
2022/02/09 04:55:15;;;;;;;6.20;3.30;;;9.50;99.90;;;;;;5019517;28;20441;-90
2022/02/09 04:57:47;;;;;;;6.67;2.73;;;9.50;99.90;;;;;;5019243;28;20449;-91
2022/02/09 05:00:31;;;;;;;6.10;2.87;;;9.50;99.90;;;;;;5018771;28;20514;-91
2022/02/09 05:03:35;;;;;;;4.73;2.17;;;9.50;99.90;;;;;;5156425;23;20517;-92
2022/02/09 05:22:54;;;;;;;4.90;2.23;;;9.50;99.90;;;;;;5013621;28;20538;-91
2022/02/09 05:28:06;;;;;;;7.07;2.43;;;9.50;99.90;;;;;;5009352;28;20209;-91
2022/02/09 05:30:34;;;;;;;8.77;3.00;;;9.50;99.90;;;;;;5008802;28;20576;-91
2022/02/09 05:33:01;;;;;;;7.07;2.97;;;9.50;99.90;;;;;;5010798;28;20456;-91
2022/02/09 05:35:35;;;;;;;6.87;2.67;;;9.40;99.90;;;;;;5011599;28;20492;-91
2022/02/09 05:38:07;;;;;;;7.03;2.93;;;9.40;99.90;;;;;;5011241;28;20511;-92
2022/02/09 05:40:34;;;;;;;8.57;3.47;;;9.50;99.90;;;;;;5017996;28;20421;-91
2022/02/09 05:43:05;;;;;;;9.00;3.07;;;9.50;99.90;;;;;;5018373;28;20453;-91
2022/02/09 05:45:46;;;;;;;5.97;2.93;;;9.50;99.90;;;;;;5018740;28;20514;-91
2022/02/09 05:51:01;;;;;;;6.53;3.07;;;9.50;99.90;;;;;;4977507;28;20463;-92
2022/02/09 05:53:41;;;;;;;5.93;3.57;;;9.50;99.90;;;;;;5008738;28;20445;-92
2022/02/09 05:56:20;;;;;;;8.80;3.27;;;9.50;99.90;;;;;;5007330;28;20482;-93
2022/02/09 05:59:03;;;;;;;6.33;3.50;;;9.50;99.90;;;;;;5014941;28;20530;-91
2022/02/09 06:01:33;;;;;;;5.80;2.60;;;9.50;99.90;;;;;;5014095;28;20441;-92
2022/02/09 06:04:01;;;;;;;8.33;3.60;;;9.50;99.90;;;;;;5008193;28;20518;-92
2022/02/09 06:06:30;;;;;;;6.20;3.10;;;9.50;99.90;;;;;;5013417;28;20459;-92
2022/02/09 06:09:00;;;;;;;6.77;2.90;;;9.50;99.90;;;;;;5016799;28;20563;-92
2022/02/09 06:11:34;;;;;;;7.07;3.60;;;9.50;99.90;;;;;;5015126;28;20458;-93
2022/02/09 06:14:20;;;;;;;10.83;3.67;;;9.50;99.90;;;;;;5013994;28;20450;-92
2022/02/09 06:25:08;;;;;;;7.57;3.27;;;9.60;99.90;;;;;;5237563;23;20484;-91
2022/02/09 06:27:46;;;;;;;7.60;3.10;;;9.50;99.90;;;;;;5115073;23;20506;-93
2022/02/09 06:30:26;;;;;;;6.07;3.27;;;9.50;99.90;;;;;;5015729;28;20473;-93
2022/02/09 07:06:35;;;;;;;9.90;4.17;;;9.40;99.90;;;;;;4990417;28;20596;-92
2022/02/09 07:09:06;;;;;;;14.00;7.20;;;9.20;99.90;;;;;;4995578;28;20463;-92
2022/02/09 07:11:47;;;;;;;7.70;3.50;;;9.20;99.90;;;;;;5000945;28;20565;-90
2022/02/09 07:16:49;;;;;;;8.52;3.70;;;9.10;99.90;;;;;;5078788;23;20253;-92
2022/02/09 07:19:17;;;;;;;7.33;3.63;;;9.10;99.90;;;;;;5018840;28;20241;-92
2022/02/09 07:21:51;;;;;;;7.80;3.60;;;9.10;99.90;;;;;;5009486;28;20451;-92
2022/02/09 07:24:22;;;;;;;10.97;4.30;;;9.20;99.90;;;;;;5009940;28;20495;-93
2022/02/09 07:27:22;;;;;;;8.15;3.80;;;9.10;99.90;;;;;;5012043;28;20473;-92
2022/02/09 07:29:46;;;;;;;10.07;4.10;;;9.00;99.90;;;;;;5008525;28;20335;-92
2022/02/09 07:32:15;;;;;;;9.90;4.27;;;8.90;99.90;;;;;;5016405;28;20475;-92
2022/02/09 07:44:32;;;;;;;8.30;3.87;;;8.80;99.90;;;;;;5011189;28;20883;-92
2022/02/09 07:47:33;;;;;;;13.52;4.43;;;8.70;99.90;;;;;;5010306;28;20448;-91
2022/02/09 07:52:55;;;;;;;7.47;3.92;;;8.60;99.90;;;;;;5018391;28;20526;-91
2022/02/09 07:55:24;;;;;;;7.20;4.60;;;8.60;99.90;;;;;;5012587;28;20201;-91
2022/02/09 07:57:55;;;;;;;10.25;4.10;;;8.60;99.90;;;;;;5012283;28;20230;-91
2022/02/09 08:00:34;;;;;;;12.13;3.55;;;8.70;99.90;;;;;;4993969;28;20218;-90
2022/02/09 08:03:14;;;;;;;8.85;3.83;;;8.80;99.90;;;;;;4992045;28;20608;-91
2022/02/09 08:05:48;;;;;;;8.55;4.18;;;8.80;99.90;;;;;;4997157;28;20237;-91
2022/02/09 08:11:14;;;;;;;8.27;3.90;;;8.90;99.90;;;;;;4994141;28;20199;-93
2022/02/09 08:30:58;;;;;;;8.20;5.05;;;9.00;99.90;;;;;;4998378;28;20446;-90
2022/02/09 08:33:27;;;;;;;11.70;3.90;;;8.90;99.90;;;;;;4999684;28;20206;-91
2022/02/09 08:35:57;;;;;;;7.70;3.80;;;9.00;99.90;;;;;;4999991;28;20481;-90
2022/02/09 08:38:29;;;;;;;7.67;3.13;;;9.00;99.90;;;;;;5000040;28;20513;-90
2022/02/09 08:40:59;;;;;;;9.13;4.03;;;9.00;99.90;;;;;;4999963;28;20450;-91
2022/02/09 08:43:28;;;;;;;8.90;3.60;;;9.00;99.90;;;;;;4999992;28;20597;-90
2022/02/09 08:45:55;;;;;;;11.07;3.63;;;9.00;99.90;;;;;;4995343;28;20515;-91
2022/02/09 08:48:22;;;;;;;11.40;4.27;;;9.10;99.90;;;;;;4985276;28;20289;-90
2022/02/09 08:50:54;;;;;;;6.70;3.10;;;9.20;99.90;;;;;;4992318;28;20479;-91
2022/02/09 08:53:22;;;;;;;8.30;3.60;;;9.20;99.90;;;;;;4995681;28;20442;-92
2022/02/09 08:55:49;;;;;;;8.05;3.60;;;9.40;99.90;;;;;;4995981;28;20237;-92
2022/02/09 08:58:20;;;;;;;11.87;4.40;;;9.40;99.90;;;;;;4996853;28;20231;-91
2022/02/09 09:00:49;;;;;;;10.30;3.70;;;9.50;99.90;;;;;;4999306;28;20446;-91
2022/02/09 09:03:20;;;;;;;14.07;4.23;;;9.70;99.90;;;;;;5082477;23;20450;-89
2022/02/09 09:05:50;;;;;;;6.07;3.00;;;9.80;99.90;;;;;;5012473;28;20554;-91
2022/02/09 09:11:45;;;;;;;5.70;2.73;;;9.90;99.90;;;;;;5004913;28;20439;-91
2022/02/09 09:15:05;;;;;;;7.80;2.87;;;9.90;99.90;;;;;;5004536;28;20456;-91
2022/02/09 09:18:26;;;;;;;8.00;3.00;;;10.00;99.90;;;;;;5003931;28;20501;-90
2022/02/09 10:04:08;;;;;;;9.23;2.60;;;10.90;99.90;;;;;;5259892;23;20573;-92
2022/02/09 10:35:26;;;;;;;9.50;2.80;;;11.40;99.90;;;;;;5001655;28;20978;-86
2022/02/09 10:37:55;;;;;;;6.93;2.50;;;11.50;99.90;;;;;;5004071;28;20479;-85
2022/02/09 10:40:32;;;;;;;9.13;3.23;;;11.60;99.90;;;;;;5003837;28;20486;-86
2022/02/09 10:43:01;;;;;;;8.13;3.33;;;11.70;99.90;;;;;;5003435;28;20440;-86
2022/02/09 10:45:33;;;;;;;7.20;3.10;;;11.80;99.90;;;;;;5004556;28;20438;-86
2022/02/09 10:48:01;;;;;;;11.03;3.00;;;11.70;99.90;;;;;;5005090;28;20446;-86
2022/02/09 10:50:32;;;;;;;8.80;3.70;;;11.80;99.90;;;;;;5003756;28;20853;-85
2022/02/09 10:53:01;;;;;;;7.20;2.87;;;11.80;99.90;;;;;;5002875;28;20859;-85
2022/02/09 10:55:31;;;;;;;4.50;2.67;;;12.00;99.90;;;;;;5003251;28;20432;-86
2022/02/09 10:57:59;;;;;;;7.00;2.73;;;12.10;99.90;;;;;;5003143;28;20586;-86
2022/02/09 11:00:27;;;;;;;5.93;3.07;;;12.10;99.90;;;;;;5003254;28;20449;-86
2022/02/09 11:02:55;;;;;;;9.83;3.17;;;12.10;99.90;;;;;;5004111;28;20454;-86
2022/02/09 11:05:22;;;;;;;6.17;2.67;;;12.10;99.90;;;;;;5002217;28;20517;-86
2022/02/09 11:07:52;;;;;;;7.73;2.30;;;12.20;99.90;;;;;;5002796;28;20432;-86
2022/02/09 11:10:19;;;;;;;9.37;2.83;;;12.30;99.90;;;;;;5003958;28;20475;-86
2022/02/09 11:12:46;;;;;;;5.10;2.47;;;12.30;99.90;;;;;;5003137;28;20523;-87
2022/02/09 11:15:18;;;;;;;7.20;2.30;;;12.40;99.90;;;;;;5008890;28;20465;-86
2022/02/09 11:17:47;;;;;;;8.17;3.57;;;12.50;99.90;;;;;;5006719;28;20446;-86
2022/02/09 11:20:16;;;;;;;11.23;4.00;;;12.60;99.90;;;;;;5002552;28;20529;-86
2022/02/09 11:22:45;;;;;;;9.50;3.20;;;12.60;99.90;;;;;;5003727;28;20470;-86
2022/02/09 11:25:19;;;;;;;8.10;3.00;;;12.70;99.90;;;;;;5004908;28;20422;-86
2022/02/09 11:27:52;;;;;;;7.53;2.67;;;12.70;99.90;;;;;;5003240;28;20486;-86
2022/02/09 11:30:29;;;;;;;16.67;3.30;;;12.80;99.90;;;;;;5000738;28;20826;-86
2022/02/09 11:33:07;;;;;;;5.90;2.27;;;12.80;99.90;;;;;;4999211;28;20447;-85
2022/02/09 11:35:43;;;;;;;4.70;2.13;;;12.90;99.90;;;;;;5001930;28;20455;-86
2022/02/09 11:41:13;;;;;;;7.60;2.20;;;13.00;99.90;;;;;;5004588;28;20562;-85
2022/02/09 11:46:46;;;;;;;6.60;2.40;;;13.10;99.90;;;;;;5006443;28;20434;-84
2022/02/09 11:52:18;;;;;;;6.27;3.00;;;13.10;99.90;;;;;;5007514;28;20806;-85
2022/02/09 12:00:55;;;;;;;4.03;2.10;;;13.30;99.90;;;;;;5011826;28;20462;-86
2022/02/09 12:09:34;;;;;;;4.10;1.60;;;13.40;99.90;;;;;;4984989;28;20430;-86
2022/02/09 12:12:06;;;;;;;4.70;2.60;;;13.40;99.90;;;;;;5007155;28;20460;-86
2022/02/09 12:14:56;;;;;;;5.03;1.90;;;13.40;99.90;;;;;;5007333;28;20426;-86
2022/02/09 12:17:50;;;;;;;4.90;2.27;;;13.40;99.90;;;;;;5009155;28;20450;-86
2022/02/09 12:20:23;;;;;;;13.20;4.70;;;13.60;99.90;;;;;;5005955;28;20529;-86
2022/02/09 12:23:04;;;;;;;7.60;3.87;;;13.60;99.90;;;;;;5006909;28;20530;-86
2022/02/09 12:25:42;;;;;;;6.87;3.20;;;13.50;99.90;;;;;;5005525;28;20489;-86
2022/02/09 12:28:15;;;;;;;8.53;3.57;;;13.40;99.90;;;;;;5004227;28;20417;-86
2022/02/09 12:30:43;;;;;;;8.20;3.00;;;13.50;99.90;;;;;;5004548;28;20467;-86
2022/02/09 12:33:19;;;;;;;9.70;2.80;;;13.60;99.90;;;;;;5007749;28;20451;-86
2022/02/09 12:35:46;;;;;;;10.43;2.90;;;13.70;99.90;;;;;;5006666;28;20475;-86
2022/02/09 12:38:13;;;;;;;12.23;3.30;;;13.80;99.90;;;;;;5005101;28;20465;-86
2022/02/09 12:40:40;;;;;;;7.17;2.70;;;13.60;99.90;;;;;;5004582;28;20562;-86
2022/02/09 12:43:13;;;;;;;8.50;3.60;;;13.80;99.90;;;;;;5007054;28;20490;-86
2022/02/09 12:45:41;;;;;;;6.83;3.00;;;13.80;99.90;;;;;;5011388;28;20402;-86
2022/02/09 12:48:15;;;;;;;6.70;3.10;;;13.70;99.90;;;;;;5007174;28;20432;-86
2022/02/09 12:50:42;;;;;;;5.17;2.57;;;13.80;99.90;;;;;;5006630;28;20513;-85
2022/02/09 12:53:10;;;;;;;5.60;3.00;;;13.80;99.90;;;;;;5015224;28;20438;-85
2022/02/09 12:55:39;;;;;;;6.77;2.80;;;13.70;99.90;;;;;;5016505;28;20426;-86
2022/02/09 12:58:15;;;;;;;5.50;2.20;;;13.60;99.90;;;;;;5006464;28;20916;-86
2022/02/09 13:00:44;;;;;;;8.60;2.70;;;13.70;99.90;;;;;;5004894;28;20445;-86
2022/02/09 13:03:14;;;;;;;5.10;2.37;;;13.70;99.90;;;;;;5005990;28;20490;-86
2022/02/09 13:05:46;;;;;;;8.10;3.27;;;13.70;99.90;;;;;;5005601;28;20418;-86
2022/02/09 13:08:18;;;;;;;7.00;2.50;;;13.70;99.90;;;;;;5013255;28;20418;-86
2022/02/09 13:10:45;;;;;;;8.23;2.60;;;13.70;99.90;;;;;;5013597;28;20490;-86
2022/02/09 13:13:17;;;;;;;7.80;2.60;;;13.70;99.90;;;;;;5011652;28;20482;-87
2022/02/09 13:15:49;;;;;;;9.77;2.67;;;13.60;99.90;;;;;;5004538;28;21018;-86
2022/02/09 14:03:44;;;;;;;8.50;2.47;;;14.00;99.90;;;;;;5004334;28;20389;-86
2022/02/09 14:12:21;;;;;;;6.50;2.60;;;14.00;99.90;;;;;;5005752;28;20474;-86
2022/02/09 14:53:56;;;;;;;8.50;2.80;;;14.40;99.90;;;;;;4990771;28;20578;-85
2022/02/09 14:56:38;;;;;;;6.27;2.70;;;14.40;99.90;;;;;;5004485;28;20508;-85
2022/02/09 14:59:18;;;;;;;7.20;2.60;;;14.50;99.90;;;;;;5005409;28;20445;-86
2022/02/09 15:01:53;;;;;;;7.70;2.77;;;14.60;99.90;;;;;;5004357;28;20471;-86
2022/02/09 15:04:30;;;;;;;9.13;3.20;;;14.50;99.90;;;;;;5004693;28;20473;-85
2022/02/09 15:07:20;;;;;;;6.47;2.50;;;14.60;99.90;;;;;;5009964;28;20410;-85
2022/02/09 15:09:52;;;;;;;5.57;2.70;;;14.50;99.90;;;;;;5011460;28;20471;-85
2022/02/09 15:12:25;;;;;;;10.73;3.33;;;14.50;99.90;;;;;;5009874;28;20477;-86
2022/02/09 15:18:01;;;;;;;6.23;2.80;;;14.50;99.90;;;;;;5008848;28;20446;-86
2022/02/09 15:20:49;;;;;;;6.87;2.77;;;14.40;99.90;;;;;;5009624;28;20483;-86
2022/02/09 15:23:18;;;;;;;8.70;3.33;;;14.40;99.90;;;;;;5010312;28;20442;-85
2022/02/09 15:25:46;;;;;;;5.20;2.63;;;14.30;99.90;;;;;;5010571;28;20497;-85
2022/02/09 15:28:13;;;;;;;4.90;2.43;;;14.30;99.90;;;;;;5011625;28;20447;-85
2022/02/09 15:30:51;;;;;;;6.90;2.87;;;14.20;99.90;;;;;;5009778;28;20485;-85
2022/02/09 15:33:23;;;;;;;6.93;2.73;;;14.20;99.90;;;;;;5020498;28;20498;-86
2022/02/09 15:35:56;;;;;;;7.73;3.10;;;14.20;99.90;;;;;;5012079;28;20459;-86
2022/02/09 15:38:32;;;;;;;6.27;2.83;;;14.00;99.90;;;;;;5013073;28;20510;-86
2022/02/09 15:41:11;;;;;;;7.60;2.43;;;14.00;99.90;;;;;;5009896;28;20467;-85
2022/02/09 15:44:04;;;;;;;8.73;3.57;;;14.00;99.90;;;;;;5013648;28;20413;-85
2022/02/09 15:58:09;;;;;;;11.07;3.57;;;13.70;99.90;;;;;;5010517;28;20401;-84
2022/02/09 16:06:08;;;;;;;6.47;3.10;;;13.60;99.90;;;;;;4984998;28;20444;-86
2022/02/09 16:09:09;;;;;;;9.53;4.60;;;13.80;99.90;;;;;;5008441;28;20474;-86
2022/02/09 16:23:02;;;;;;;12.43;4.57;;;13.60;99.90;;;;;;4209730;26;20928;-91
2022/02/09 16:25:52;;;;;;;11.10;5.97;;;13.60;99.90;;;;;;5016302;28;20495;-91
2022/02/09 16:34:29;;;;;;;16.23;9.40;;;13.60;99.90;;;;;;5012533;28;20395;-90
2022/02/09 16:37:27;;;;;;;12.83;8.50;;;13.50;99.90;;;;;;5059344;23;21724;-88
2022/02/09 16:48:00;;;;;;;7.77;4.90;;;13.20;99.90;;;;;;5268293;23;20509;-87
2022/02/09 17:20:39;;;;;;;12.63;4.77;;;12.20;99.90;;;;;;5017413;28;20494;-91
2022/02/09 17:23:06;;;;;;;9.57;3.80;;;12.20;99.90;;;;;;5015763;28;20828;-90
2022/02/09 17:25:39;;;;;;;12.03;3.83;;;12.00;99.90;;;;;;5014158;28;20459;-90
2022/02/09 17:28:10;;;;;;;10.37;5.10;;;12.00;99.90;;;;;;5013354;28;20454;-91
2022/02/09 17:30:58;;;;;;;9.03;3.40;;;11.90;99.90;;;;;;5017219;28;20465;-90
2022/02/09 17:33:40;;;;;;;10.23;4.80;;;11.80;99.90;;;;;;5013954;28;20435;-91
2022/02/09 17:36:13;;;;;;;10.73;4.00;;;11.60;99.90;;;;;;5016185;28;20441;-90
2022/02/09 17:38:47;;;;;;;12.23;4.50;;;11.50;99.90;;;;;;5018078;28;20506;-90
2022/02/09 17:58:14;;;;;;;9.97;3.93;;;11.00;99.90;;;;;;5003962;28;20442;-91
2022/02/09 18:00:44;;;;;;;8.77;4.07;;;10.80;99.90;;;;;;5004567;28;20518;-90
2022/02/09 18:03:30;;;;;;;6.83;3.73;;;10.70;99.90;;;;;;5005045;28;20597;-91
2022/02/09 18:06:12;;;;;;;13.53;4.40;;;10.70;99.90;;;;;;5009702;28;20478;-91
2022/02/09 18:08:49;;;;;;;8.30;4.07;;;10.80;99.90;;;;;;5014810;28;20493;-92
2022/02/09 18:11:36;;;;;;;14.47;5.80;;;10.70;99.90;;;;;;5010586;28;20456;-92
2022/02/09 18:14:26;;;;;;;9.20;6.23;;;10.60;99.90;;;;;;5006530;28;20441;-92
2022/02/09 18:26:02;;;;;;;7.03;3.30;;;10.30;99.90;;;;;;5007736;28;20543;-91
2022/02/09 18:28:59;;;;;;;11.10;3.80;;;10.20;99.90;;;;;;5006861;28;20498;-91
2022/02/09 18:32:08;;;;;;;13.87;5.77;;;10.10;99.90;;;;;;5007709;28;20506;-92
2022/02/09 18:37:40;;;;;;;8.43;4.47;;;10.20;99.90;;;;;;5012327;28;20450;-91
2022/02/09 18:43:11;;;;;;;10.93;4.63;;;10.00;99.90;;;;;;5009392;28;20417;-90
2022/02/09 19:01:35;;;;;;;10.00;5.10;;;9.80;99.90;;;;;;5004946;28;20463;-91
2022/02/09 19:04:11;;;;;;;8.97;4.60;;;9.70;99.90;;;;;;5016690;28;20462;-91
2022/02/09 19:14:32;;;;;;;8.20;4.73;;;9.40;99.90;;;;;;3082537;23;20459;-92
2022/02/09 21:54:44;;;;;;;14.65;5.50;;;7.00;99.90;;;;;;5256451;23;20248;-91
2022/02/09 21:57:20;;;;;;;8.18;4.90;;;7.00;99.90;;;;;;4997647;28;20224;-90
2022/02/09 22:16:26;;;;;;;8.73;4.72;;;6.80;99.90;;;;;;4989051;28;20313;-90
2022/02/09 22:19:29;;;;;;;10.60;5.35;;;6.80;99.90;;;;;;4993784;28;20229;-90
2022/02/09 22:22:28;;;;;;;8.65;5.45;;;6.80;99.90;;;;;;4980286;28;20312;-90
2022/02/09 22:27:48;;;;;;;9.70;4.60;;;6.80;99.90;;;;;;4975929;28;20201;-85
2022/02/09 22:50:05;;;;;;;11.40;4.90;;;6.80;99.90;;;;;;4961421;28;20202;-85
2022/02/09 22:55:22;;;;;;;8.52;4.97;;;6.90;99.90;;;;;;4963274;28;20288;-84
2022/02/09 22:57:56;;;;;;;10.25;5.15;;;6.70;99.90;;;;;;4966328;28;20229;-86
2022/02/09 23:00:59;;;;;;;9.35;4.57;;;6.70;99.90;;;;;;4972823;28;20218;-84
2022/02/09 23:03:28;;;;;;;8.93;5.28;;;6.90;99.90;;;;;;4963205;28;20240;-86
2022/02/09 23:14:43;;;;;;;7.82;4.30;;;6.60;99.90;;;;;;4963364;28;20213;-85
2022/02/09 23:20:33;;;;;;;8.38;4.20;;;6.50;99.90;;;;;;4967774;28;20269;-86
2022/02/09 23:56:35;;;;;;;10.27;5.18;;;6.70;99.90;;;;;;4965459;28;20229;-85
